createdAt,value
2023-03-24T00:01:49.466Z,11.70
2023-03-24T00:04:39.140Z,11.70
2023-03-24T00:07:30.443Z,11.70
2023-03-24T00:10:20.539Z,11.80
2023-03-24T00:13:09.444Z,11.70
2023-03-24T00:15:57.990Z,11.80
2023-03-24T00:18:50.729Z,11.80
2023-03-24T00:21:38.655Z,11.80
2023-03-24T00:24:29.360Z,11.70
2023-03-24T00:27:18.740Z,11.80
2023-03-24T00:30:11.534Z,11.80
2023-03-24T00:33:01.875Z,11.80
2023-03-24T00:35:49.963Z,11.70
2023-03-24T00:38:39.931Z,11.80
2023-03-24T00:41:28.965Z,11.80
2023-03-24T00:44:20.572Z,11.80
2023-03-24T00:47:09.826Z,11.90
2023-03-24T00:49:58.287Z,11.90
2023-03-24T00:52:48.344Z,11.80
2023-03-24T00:55:38.062Z,11.80
2023-03-24T00:58:26.327Z,11.80
2023-03-24T01:01:14.231Z,11.70
2023-03-24T01:04:03.309Z,11.70
2023-03-24T01:06:52.365Z,11.70
2023-03-24T01:09:40.807Z,11.70
2023-03-24T01:12:36.768Z,11.70
2023-03-24T01:15:33.316Z,11.80
2023-03-24T01:18:23.922Z,11.70
2023-03-24T01:21:13.009Z,11.70
2023-03-24T01:24:03.354Z,11.80
2023-03-24T01:26:51.461Z,11.80
2023-03-24T01:29:39.888Z,11.90
2023-03-24T01:32:29.665Z,11.70
2023-03-24T01:35:18.226Z,11.70
2023-03-24T01:38:08.805Z,11.70
2023-03-24T01:40:56.791Z,11.60
2023-03-24T01:43:45.355Z,11.60
2023-03-24T01:46:36.500Z,11.70
2023-03-24T01:49:35.704Z,11.80
2023-03-24T01:52:36.551Z,11.80
2023-03-24T01:55:24.598Z,11.80
2023-03-24T01:58:13.026Z,11.80
2023-03-24T02:01:00.831Z,11.70
2023-03-24T02:03:49.127Z,11.80
2023-03-24T02:06:41.192Z,11.80
2023-03-24T02:09:29.307Z,11.70
2023-03-24T02:12:18.349Z,11.70
2023-03-24T02:15:07.392Z,11.70
2023-03-24T02:18:19.189Z,11.60
2023-03-24T02:21:25.735Z,11.70
2023-03-24T02:24:32.613Z,11.60
2023-03-24T02:27:53.037Z,11.60
2023-03-24T02:31:43.755Z,11.70
2023-03-24T02:34:59.147Z,11.90
2023-03-24T02:38:17.306Z,11.90
2023-03-24T02:41:47.203Z,11.90
2023-03-24T02:45:27.242Z,11.80
2023-03-24T02:48:41.630Z,11.90
2023-03-24T02:51:54.106Z,12.00
2023-03-24T02:55:08.912Z,12.00
2023-03-24T02:58:05.515Z,12.00
2023-03-24T03:01:03.638Z,11.70
2023-03-24T03:03:55.109Z,11.60
2023-03-24T03:06:52.562Z,11.50
2023-03-24T03:09:49.368Z,11.30
2023-03-24T03:12:38.806Z,11.30
2023-03-24T03:15:33.042Z,11.20
2023-03-24T03:18:34.111Z,11.30
2023-03-24T03:21:25.432Z,11.30
2023-03-24T03:24:27.657Z,11.30
2023-03-24T03:27:21.283Z,11.40
2023-03-24T03:30:38.601Z,11.40
2023-03-24T03:33:35.906Z,11.50
2023-03-24T03:36:30.415Z,11.50
2023-03-24T03:39:36.015Z,11.50
2023-03-24T03:42:24.989Z,11.60
2023-03-24T03:45:14.357Z,11.60
2023-03-24T03:48:02.514Z,11.70
2023-03-24T03:50:57.336Z,11.60
2023-03-24T03:53:58.503Z,11.60
2023-03-24T03:56:48.462Z,11.60
2023-03-24T03:59:39.204Z,11.60
2023-03-24T04:02:35.882Z,11.70
2023-03-24T04:05:51.276Z,11.60
2023-03-24T04:09:10.215Z,11.60
2023-03-24T04:12:20.451Z,11.60
2023-03-24T04:15:33.842Z,11.60
2023-03-24T04:19:23.848Z,11.50
2023-03-24T04:22:28.256Z,11.60
2023-03-24T04:25:26.677Z,11.50
2023-03-24T04:28:26.726Z,11.40
2023-03-24T04:31:34.200Z,11.40
2023-03-24T04:34:32.883Z,11.30
2023-03-24T04:37:32.644Z,11.30
2023-03-24T04:40:22.749Z,11.30
2023-03-24T04:43:17.266Z,11.40
2023-03-24T04:46:07.455Z,11.50
2023-03-24T04:48:55.741Z,11.60
2023-03-24T04:51:45.046Z,11.80
2023-03-24T04:54:33.607Z,11.80
2023-03-24T04:57:23.819Z,11.90
2023-03-24T05:00:12.995Z,11.90
2023-03-24T05:03:00.990Z,11.90
2023-03-24T05:05:50.917Z,11.90
2023-03-24T05:08:39.693Z,11.90
2023-03-24T05:11:28.493Z,11.90
2023-03-24T05:14:16.956Z,11.90
2023-03-24T05:17:04.761Z,12.00
2023-03-24T05:19:53.008Z,12.00
2023-03-24T05:22:41.118Z,12.10
2023-03-24T05:25:29.072Z,12.20
2023-03-24T05:28:16.973Z,12.10
2023-03-24T05:31:04.934Z,12.10
2023-03-24T05:33:52.895Z,12.10
2023-03-24T05:36:40.796Z,12.10
2023-03-24T05:39:28.683Z,12.00
2023-03-24T05:42:17.174Z,12.00
2023-03-24T05:45:06.510Z,12.00
2023-03-24T05:47:54.473Z,12.00
2023-03-24T05:50:42.589Z,12.00
2023-03-24T05:53:31.139Z,12.00
2023-03-24T05:56:18.988Z,12.00
2023-03-24T05:59:06.922Z,12.00
2023-03-24T06:01:58.631Z,12.10
2023-03-24T06:04:48.896Z,12.20
2023-03-24T06:07:38.933Z,12.20
2023-03-24T06:10:27.955Z,12.20
2023-03-24T06:13:15.970Z,12.30
2023-03-24T06:16:04.184Z,12.20
2023-03-24T06:18:53.143Z,12.30
2023-03-24T06:21:41.204Z,12.30
2023-03-24T06:24:30.113Z,12.40
2023-03-24T06:27:21.685Z,12.50
2023-03-24T06:30:10.820Z,12.50
2023-03-24T06:33:01.975Z,12.60
2023-03-24T06:35:52.736Z,12.60
2023-03-24T06:38:42.209Z,12.50
2023-03-24T06:41:30.173Z,12.60
2023-03-24T06:44:18.286Z,12.60
2023-03-24T06:47:06.581Z,12.60
2023-03-24T06:49:54.524Z,12.60
2023-03-24T06:52:42.412Z,12.60
2023-03-24T06:55:30.201Z,12.60
2023-03-24T06:58:19.649Z,12.60
2023-03-24T07:01:07.547Z,12.60
2023-03-24T07:03:56.140Z,12.50
2023-03-24T07:06:59.858Z,12.50
2023-03-24T07:09:54.929Z,12.60
2023-03-24T07:12:45.293Z,12.60
2023-03-24T07:15:33.729Z,12.80
2023-03-24T07:18:22.034Z,12.80
2023-03-24T07:21:12.699Z,12.80
2023-03-24T07:24:02.320Z,12.80
2023-03-24T07:26:50.481Z,12.90
2023-03-24T07:29:38.715Z,12.90
2023-03-24T07:32:30.810Z,13.00
2023-03-24T07:35:19.079Z,12.90
2023-03-24T07:38:07.305Z,12.80
2023-03-24T07:40:55.397Z,12.80
2023-03-24T07:43:43.422Z,12.80
2023-03-24T07:46:34.426Z,12.70
2023-03-24T07:49:22.438Z,12.50
2023-03-24T07:52:10.321Z,12.20
2023-03-24T07:54:58.236Z,12.10
2023-03-24T07:57:48.273Z,12.10
2023-03-24T08:00:37.660Z,12.10
2023-03-24T08:03:27.893Z,12.10
2023-03-24T08:06:16.715Z,12.20
2023-03-24T08:09:04.825Z,12.30
2023-03-24T08:11:52.948Z,12.30
2023-03-24T08:14:44.553Z,12.30
2023-03-24T08:17:33.779Z,12.60
2023-03-24T08:20:24.724Z,12.70
2023-03-24T08:23:12.673Z,12.70
2023-03-24T08:26:01.436Z,12.70
2023-03-24T08:28:50.036Z,12.70
2023-03-24T08:31:38.360Z,12.60
2023-03-24T08:34:26.198Z,12.60
2023-03-24T08:37:14.139Z,12.60
2023-03-24T08:40:12.149Z,12.60
2023-03-24T08:43:03.741Z,12.50
2023-03-24T08:45:52.472Z,12.40
2023-03-24T08:48:41.369Z,12.40
2023-03-24T08:51:29.540Z,12.20
2023-03-24T08:54:18.233Z,12.10
2023-03-24T08:57:06.815Z,12.10
2023-03-24T08:59:54.834Z,12.20
2023-03-24T09:02:47.006Z,12.40
2023-03-24T09:05:44.576Z,12.50
2023-03-24T09:08:32.817Z,12.60
2023-03-24T09:11:22.427Z,12.70
2023-03-24T09:14:10.247Z,12.70
2023-03-24T09:16:58.153Z,12.60
2023-03-24T09:19:47.712Z,12.60
2023-03-24T09:22:46.962Z,12.50
2023-03-24T09:25:35.134Z,12.40
2023-03-24T09:28:23.326Z,12.30
2023-03-24T09:31:12.062Z,12.30
2023-03-24T09:34:03.865Z,12.40
2023-03-24T09:36:52.108Z,12.30
2023-03-24T09:39:40.332Z,12.30
2023-03-24T09:42:41.558Z,12.10
2023-03-24T09:45:34.894Z,11.90
2023-03-24T09:48:41.809Z,11.80
2023-03-24T09:51:42.999Z,11.70
2023-03-24T09:54:59.271Z,11.40
2023-03-24T09:57:50.729Z,11.00
2023-03-24T10:00:39.065Z,10.80
2023-03-24T10:03:27.593Z,10.70
2023-03-24T10:06:27.037Z,10.70
2023-03-24T10:09:32.365Z,10.70
2023-03-24T10:12:29.632Z,10.70
2023-03-24T10:15:46.756Z,11.00
2023-03-24T10:18:45.488Z,11.10
2023-03-24T10:21:41.165Z,11.00
2023-03-24T10:24:48.272Z,11.00
2023-03-24T10:27:47.910Z,10.90
2023-03-24T10:30:43.038Z,10.90
2023-03-24T10:33:31.873Z,10.80
2023-03-24T10:36:34.145Z,10.80
2023-03-24T10:39:26.312Z,10.90
2023-03-24T10:42:35.409Z,11.10
2023-03-24T10:45:33.469Z,11.30
2023-03-24T10:49:07.143Z,11.70
2023-03-24T10:52:04.075Z,11.80
2023-03-24T10:55:06.385Z,11.90
2023-03-24T10:57:58.426Z,11.80
2023-03-24T11:00:47.269Z,11.80
2023-03-24T11:03:38.010Z,11.90
2023-03-24T11:06:26.037Z,11.80
2023-03-24T11:09:21.991Z,12.00
2023-03-24T11:12:32.366Z,12.20
2023-03-24T11:15:29.311Z,12.30
2023-03-24T11:18:18.137Z,12.10
2023-03-24T11:21:08.271Z,11.90
2023-03-24T11:24:04.387Z,12.20
2023-03-24T11:27:02.054Z,12.90
2023-03-24T11:29:56.607Z,13.10
2023-03-24T11:32:48.195Z,13.50
2023-03-24T11:35:59.324Z,13.10
2023-03-24T11:39:28.090Z,13.00
2023-03-24T11:42:18.409Z,13.40
2023-03-24T11:45:33.205Z,14.80
2023-03-24T11:48:41.627Z,15.00
2023-03-24T11:51:37.391Z,14.70
2023-03-24T11:54:33.324Z,15.30
2023-03-24T11:57:44.513Z,14.90
2023-03-24T12:00:47.210Z,14.40
2023-03-24T12:03:59.500Z,15.30
2023-03-24T12:07:01.628Z,15.20
2023-03-24T12:10:16.387Z,14.90
2023-03-24T12:13:32.276Z,15.10
2023-03-24T12:17:14.020Z,14.90
2023-03-24T12:20:36.765Z,15.80
2023-03-24T12:23:49.480Z,15.90
2023-03-24T12:26:39.707Z,15.50
2023-03-24T12:29:52.441Z,15.80
2023-03-24T12:33:00.162Z,15.40
2023-03-24T12:36:19.767Z,16.00
2023-03-24T12:39:12.957Z,16.80
2023-03-24T12:42:10.882Z,16.40
2023-03-24T12:45:49.878Z,16.60
2023-03-24T12:49:12.057Z,16.90
2023-03-24T12:52:37.324Z,16.40
2023-03-24T12:55:53.436Z,16.90
2023-03-24T12:58:54.455Z,18.00
2023-03-24T13:01:58.211Z,17.10
2023-03-24T13:04:49.554Z,17.10
2023-03-24T13:07:39.455Z,17.80
2023-03-24T13:10:31.035Z,17.50
2023-03-24T13:13:25.306Z,17.10
2023-03-24T13:16:23.339Z,17.50
2023-03-24T13:19:24.040Z,17.40
2023-03-24T13:22:21.384Z,16.60
2023-03-24T13:25:37.178Z,16.40
2023-03-24T13:28:34.839Z,15.60
2023-03-24T13:31:26.007Z,16.20
2023-03-24T13:34:31.847Z,17.10
2023-03-24T13:37:25.388Z,16.80
2023-03-24T13:40:23.003Z,17.20
2023-03-24T13:43:17.239Z,17.60
2023-03-24T13:46:07.601Z,17.30
2023-03-24T13:48:58.706Z,17.80
2023-03-24T13:51:47.501Z,18.20
2023-03-24T13:54:37.913Z,17.50
2023-03-24T13:57:26.808Z,16.80
2023-03-24T14:00:24.855Z,17.60
2023-03-24T14:03:22.468Z,18.20
2023-03-24T14:06:48.250Z,18.10
2023-03-24T14:10:01.767Z,18.00
2023-03-24T14:12:58.740Z,17.40
2023-03-24T14:15:54.200Z,17.90
2023-03-24T14:18:42.969Z,18.80
2023-03-24T14:21:34.528Z,18.50
2023-03-24T14:24:28.422Z,18.20
2023-03-24T14:27:37.593Z,17.70
2023-03-24T14:30:33.611Z,18.10
2023-03-24T14:33:26.410Z,18.80
2023-03-24T14:36:40.278Z,18.30
2023-03-24T14:39:46.037Z,17.70
2023-03-24T14:42:33.893Z,17.10
2023-03-24T14:45:33.671Z,17.00
2023-03-24T14:48:57.897Z,16.60
2023-03-24T14:52:32.093Z,15.90
2023-03-24T14:55:22.021Z,15.80
2023-03-24T14:58:39.012Z,15.90
2023-03-24T15:01:38.687Z,15.90
2023-03-24T15:04:26.829Z,16.00
2023-03-24T15:07:15.114Z,16.10
2023-03-24T15:10:03.361Z,16.30
2023-03-24T15:12:52.030Z,16.30
2023-03-24T15:15:48.053Z,16.10
2023-03-24T15:18:38.880Z,16.10
2023-03-24T15:22:00.445Z,16.10
2023-03-24T15:24:52.177Z,16.20
2023-03-24T15:27:40.611Z,16.40
2023-03-24T15:30:29.276Z,16.60
2023-03-24T15:33:18.099Z,16.60
2023-03-24T15:36:16.846Z,17.10
2023-03-24T15:39:18.935Z,16.90
2023-03-24T15:42:18.500Z,16.40
2023-03-24T15:45:22.269Z,16.70
2023-03-24T15:48:17.461Z,16.20
2023-03-24T15:51:09.434Z,16.60
2023-03-24T15:53:59.219Z,16.50
2023-03-24T15:57:14.014Z,16.20
2023-03-24T16:00:01.876Z,16.30
2023-03-24T16:02:53.765Z,16.10
2023-03-24T16:05:48.666Z,16.00
2023-03-24T16:08:41.151Z,16.30
2023-03-24T16:11:29.755Z,16.70
2023-03-24T16:14:24.258Z,16.00
2023-03-24T16:17:12.243Z,15.80
2023-03-24T16:20:00.237Z,15.50
2023-03-24T16:22:48.249Z,15.40
2023-03-24T16:25:36.284Z,15.20
2023-03-24T16:28:25.339Z,15.20
2023-03-24T16:31:27.508Z,15.10
2023-03-24T16:34:21.925Z,15.40
2023-03-24T16:37:10.722Z,15.60
2023-03-24T16:39:58.676Z,15.70
2023-03-24T16:42:46.782Z,16.00
2023-03-24T16:45:35.773Z,15.90
2023-03-24T16:48:23.806Z,15.60
2023-03-24T16:51:17.069Z,15.50
2023-03-24T16:54:05.714Z,15.90
2023-03-24T16:56:53.734Z,15.60
2023-03-24T16:59:42.152Z,15.40
2023-03-24T17:02:31.954Z,15.50
2023-03-24T17:05:28.118Z,15.40
2023-03-24T17:08:22.765Z,15.10
2023-03-24T17:11:16.441Z,15.10
2023-03-24T17:14:08.477Z,15.00
2023-03-24T17:16:56.598Z,14.90
2023-03-24T17:19:44.769Z,14.80
2023-03-24T17:22:32.897Z,14.80
2023-03-24T17:25:23.505Z,14.80
2023-03-24T17:28:18.278Z,14.80
2023-03-24T17:31:06.299Z,14.70
2023-03-24T17:33:54.278Z,14.60
2023-03-24T17:36:42.243Z,14.40
2023-03-24T17:39:33.055Z,14.20
2023-03-24T17:42:21.765Z,14.10
2023-03-24T17:45:20.564Z,14.00
2023-03-24T17:48:08.777Z,14.00
2023-03-24T17:50:57.318Z,13.90
2023-03-24T17:53:48.253Z,13.90
2023-03-24T17:56:42.397Z,13.80
2023-03-24T17:59:30.265Z,13.80
2023-03-24T18:02:18.215Z,13.70
2023-03-24T18:05:07.616Z,13.70
2023-03-24T18:07:55.438Z,13.60
2023-03-24T18:10:43.688Z,13.50
2023-03-24T18:13:31.536Z,13.50
2023-03-24T18:16:22.196Z,13.40
2023-03-24T18:19:13.823Z,13.20
2023-03-24T18:22:01.994Z,13.10
2023-03-24T18:24:50.145Z,13.10
2023-03-24T18:27:38.987Z,13.10
2023-03-24T18:30:26.982Z,13.10
2023-03-24T18:33:16.134Z,13.10
2023-03-24T18:36:06.236Z,13.00
2023-03-24T18:39:09.354Z,13.00
2023-03-24T18:41:57.365Z,13.00
2023-03-24T18:44:46.150Z,12.90
2023-03-24T18:47:35.063Z,12.90
2023-03-24T18:50:23.500Z,12.90
2023-03-24T18:53:13.720Z,12.90
2023-03-24T18:56:09.171Z,12.90
2023-03-24T18:58:57.154Z,12.90
2023-03-24T19:01:47.317Z,12.80
2023-03-24T19:04:35.909Z,12.80
2023-03-24T19:07:26.454Z,12.70
2023-03-24T19:10:15.859Z,12.70
2023-03-24T19:13:05.441Z,12.70
2023-03-24T19:15:56.501Z,12.70
2023-03-24T19:18:44.828Z,12.70
2023-03-24T19:21:33.405Z,12.70
2023-03-24T19:24:21.291Z,12.60
2023-03-24T19:27:11.475Z,12.00
2023-03-24T19:29:59.417Z,11.40
2023-03-24T19:32:47.561Z,11.10
2023-03-24T19:35:35.584Z,11.00
2023-03-24T19:38:23.938Z,10.90
2023-03-24T19:41:14.434Z,10.70
2023-03-24T19:44:04.536Z,10.60
2023-03-24T19:46:52.365Z,10.50
2023-03-24T19:49:42.895Z,10.50
2023-03-24T19:52:39.302Z,10.50
2023-03-24T19:55:27.311Z,10.40
2023-03-24T19:58:19.936Z,10.30
2023-03-24T20:01:09.911Z,10.40
2023-03-24T20:03:59.420Z,10.30
2023-03-24T20:06:51.885Z,10.30
2023-03-24T20:09:42.234Z,10.30
2023-03-24T20:12:31.045Z,10.30
2023-03-24T20:15:19.354Z,10.20
2023-03-24T20:18:07.912Z,10.20
2023-03-24T20:21:01.560Z,10.10
2023-03-24T20:23:51.079Z,10.10
2023-03-24T20:26:38.903Z,10.10
2023-03-24T20:29:27.036Z,9.90
2023-03-24T20:32:16.243Z,9.80
2023-03-24T20:35:09.049Z,9.60
2023-03-24T20:37:57.548Z,9.60
2023-03-24T20:40:46.560Z,9.60
2023-03-24T20:43:39.836Z,9.60
2023-03-24T20:46:27.989Z,9.70
2023-03-24T20:49:17.853Z,9.60
2023-03-24T20:52:08.796Z,9.60
2023-03-24T20:54:56.752Z,9.60
2023-03-24T20:57:44.853Z,9.70
2023-03-24T21:00:32.773Z,9.70
2023-03-24T21:03:21.286Z,9.70
2023-03-24T21:06:11.014Z,9.90
2023-03-24T21:09:02.515Z,9.90
2023-03-24T21:11:55.034Z,9.90
2023-03-24T21:14:47.168Z,9.90
2023-03-24T21:17:36.881Z,9.80
2023-03-24T21:20:31.061Z,9.90
2023-03-24T21:23:20.865Z,10.00
2023-03-24T21:26:15.462Z,10.30
2023-03-24T21:29:03.433Z,10.30
2023-03-24T21:31:51.734Z,10.20
2023-03-24T21:34:39.607Z,10.20
2023-03-24T21:37:30.419Z,10.20
2023-03-24T21:40:21.786Z,10.10
2023-03-24T21:43:11.997Z,9.90
2023-03-24T21:46:02.320Z,9.70
2023-03-24T21:48:53.313Z,9.60
2023-03-24T21:51:42.996Z,9.40
2023-03-24T21:54:34.438Z,9.30
2023-03-24T21:57:25.229Z,9.30
2023-03-24T22:00:17.964Z,9.30
2023-03-24T22:03:06.372Z,9.30
2023-03-24T22:05:58.005Z,9.40
2023-03-24T22:08:48.855Z,9.40
2023-03-24T22:11:42.854Z,9.50
2023-03-24T22:14:31.296Z,9.50
2023-03-24T22:17:21.887Z,9.40
2023-03-24T22:20:12.774Z,9.30
2023-03-24T22:23:03.884Z,9.20
2023-03-24T22:25:53.023Z,9.20
2023-03-24T22:28:42.388Z,9.20
2023-03-24T22:31:30.375Z,9.20
2023-03-24T22:34:18.255Z,9.30
2023-03-24T22:37:06.131Z,9.30
2023-03-24T22:39:54.055Z,9.30
2023-03-24T22:42:42.126Z,9.20
2023-03-24T22:45:29.930Z,9.30
2023-03-24T22:48:18.070Z,9.30
2023-03-24T22:51:06.919Z,9.30
2023-03-24T22:53:54.819Z,9.30
2023-03-24T22:56:42.798Z,9.30
2023-03-24T22:59:32.450Z,9.30
2023-03-24T23:02:24.601Z,9.20
2023-03-24T23:05:13.003Z,9.20
2023-03-24T23:08:01.051Z,9.20
2023-03-24T23:10:49.020Z,9.30
2023-03-24T23:13:38.713Z,9.20
2023-03-24T23:16:29.090Z,9.20
2023-03-24T23:19:17.075Z,9.20
2023-03-24T23:22:05.225Z,9.10
2023-03-24T23:25:00.581Z,8.90
2023-03-24T23:27:50.984Z,8.90
2023-03-24T23:30:40.032Z,8.80
2023-03-24T23:33:28.091Z,8.80
2023-03-24T23:36:19.115Z,8.70
2023-03-24T23:39:07.352Z,8.60
2023-03-24T23:41:55.591Z,8.60
2023-03-24T23:44:43.414Z,8.50
2023-03-24T23:47:33.478Z,8.60
2023-03-24T23:50:24.600Z,8.50
2023-03-24T23:53:12.397Z,8.50
2023-03-24T23:56:06.894Z,8.50
2023-03-24T23:58:54.762Z,8.40
